Terminal Aerodrome Forecast
Issued by NWS

Home | Current Version | Previous Version | Text Only | Print | Product List | Glossary On
Versions: 1 2 3 4 5 6 7 8 9 10 11 12 13 14 15 16 17 18 19
000
FTUS43 KDLH 241100
TAFHYR
TAF
KHYR 241132Z 2412/2512 VRB02KT P6SM BKN060
     FM241600 19006KT P6SM SCT060
     FM250900 16003KT P6SM BKN080=

USA.gov is the U.S. government's official web portal to all federal, state and local government web resources and services.